sensor_id;sensor_type;location;lat;lon;timestamp;temperature;humidity
8872;DHT22;4472;52.092;9.820;2023-05-10T00:01:29;13.60;95.50
8872;DHT22;4472;52.092;9.820;2023-05-10T00:04:16;13.60;95.60
8872;DHT22;4472;52.092;9.820;2023-05-10T00:07:03;13.70;96.50
8872;DHT22;4472;52.092;9.820;2023-05-10T00:09:50;13.50;95.20
8872;DHT22;4472;52.092;9.820;2023-05-10T00:12:39;13.60;96.60
8872;DHT22;4472;52.092;9.820;2023-05-10T00:15:26;13.40;96.70
8872;DHT22;4472;52.092;9.820;2023-05-10T00:21:01;13.40;95.80
8872;DHT22;4472;52.092;9.820;2023-05-10T00:23:48;13.30;95.50
8872;DHT22;4472;52.092;9.820;2023-05-10T00:26:35;13.30;95.70
8872;DHT22;4472;52.092;9.820;2023-05-10T00:29:23;13.30;96.20
8872;DHT22;4472;52.092;9.820;2023-05-10T00:32:10;13.30;96.70
8872;DHT22;4472;52.092;9.820;2023-05-10T00:34:59;13.20;97.20
8872;DHT22;4472;52.092;9.820;2023-05-10T00:37:46;13.20;97.10
8872;DHT22;4472;52.092;9.820;2023-05-10T00:40:35;13.20;96.90
8872;DHT22;4472;52.092;9.820;2023-05-10T00:43:22;13.10;97.20
8872;DHT22;4472;52.092;9.820;2023-05-10T00:46:11;13.20;97.70
8872;DHT22;4472;52.092;9.820;2023-05-10T00:48:59;13.10;96.70
8872;DHT22;4472;52.092;9.820;2023-05-10T00:51:46;13.20;96.90
8872;DHT22;4472;52.092;9.820;2023-05-10T00:54:33;13.30;97.20
8872;DHT22;4472;52.092;9.820;2023-05-10T00:57:21;13.30;95.90
8872;DHT22;4472;52.092;9.820;2023-05-10T01:00:09;13.40;97.10
8872;DHT22;4472;52.092;9.820;2023-05-10T01:02:58;13.50;96.30
8872;DHT22;4472;52.092;9.820;2023-05-10T01:05:45;13.50;96.00
8872;DHT22;4472;52.092;9.820;2023-05-10T01:08:33;13.60;97.30
8872;DHT22;4472;52.092;9.820;2023-05-10T01:11:20;13.60;97.60
8872;DHT22;4472;52.092;9.820;2023-05-10T01:14:07;13.60;96.50
8872;DHT22;4472;52.092;9.820;2023-05-10T01:16:55;13.60;96.90
8872;DHT22;4472;52.092;9.820;2023-05-10T01:19:44;13.60;96.60
8872;DHT22;4472;52.092;9.820;2023-05-10T01:22:44;13.60;97.30
8872;DHT22;4472;52.092;9.820;2023-05-10T01:25:49;13.60;95.40
8872;DHT22;4472;52.092;9.820;2023-05-10T01:29:11;13.80;96.70
8872;DHT22;4472;52.092;9.820;2023-05-10T01:32:16;13.80;97.10
8872;DHT22;4472;52.092;9.820;2023-05-10T01:38:02;13.90;94.80
8872;DHT22;4472;52.092;9.820;2023-05-10T01:40:57;13.90;95.30
8872;DHT22;4472;52.092;9.820;2023-05-10T01:43:52;14.00;95.80
8872;DHT22;4472;52.092;9.820;2023-05-10T01:46:40;14.00;96.60
8872;DHT22;4472;52.092;9.820;2023-05-10T01:49:34;14.00;97.60
8872;DHT22;4472;52.092;9.820;2023-05-10T01:52:26;14.10;97.90
8872;DHT22;4472;52.092;9.820;2023-05-10T01:55:19;14.10;96.80
8872;DHT22;4472;52.092;9.820;2023-05-10T01:58:09;14.10;96.90
8872;DHT22;4472;52.092;9.820;2023-05-10T02:00:58;14.00;99.90
8872;DHT22;4472;52.092;9.820;2023-05-10T02:03:47;14.20;98.90
8872;DHT22;4472;52.092;9.820;2023-05-10T02:06:38;14.20;98.40
8872;DHT22;4472;52.092;9.820;2023-05-10T02:17:55;14.20;95.30
8872;DHT22;4472;52.092;9.820;2023-05-10T02:20:43;14.30;95.80
8872;DHT22;4472;52.092;9.820;2023-05-10T02:23:34;14.30;95.20
8872;DHT22;4472;52.092;9.820;2023-05-10T02:26:23;14.30;94.80
8872;DHT22;4472;52.092;9.820;2023-05-10T02:29:12;14.30;95.10
8872;DHT22;4472;52.092;9.820;2023-05-10T02:32:01;14.30;94.90
8872;DHT22;4472;52.092;9.820;2023-05-10T02:34:49;14.40;95.00
8872;DHT22;4472;52.092;9.820;2023-05-10T02:37:38;14.40;94.70
8872;DHT22;4472;52.092;9.820;2023-05-10T02:40:28;14.40;94.80
8872;DHT22;4472;52.092;9.820;2023-05-10T02:43:17;14.40;95.00
8872;DHT22;4472;52.092;9.820;2023-05-10T02:46:05;14.40;95.30
8872;DHT22;4472;52.092;9.820;2023-05-10T02:48:52;14.40;95.10
8872;DHT22;4472;52.092;9.820;2023-05-10T02:51:44;14.40;95.00
8872;DHT22;4472;52.092;9.820;2023-05-10T02:54:39;14.40;95.40
8872;DHT22;4472;52.092;9.820;2023-05-10T02:57:32;14.40;95.40
8872;DHT22;4472;52.092;9.820;2023-05-10T03:00:20;14.40;95.20
8872;DHT22;4472;52.092;9.820;2023-05-10T03:03:07;14.40;95.30
8872;DHT22;4472;52.092;9.820;2023-05-10T03:05:54;14.50;99.90
8872;DHT22;4472;52.092;9.820;2023-05-10T03:08:43;14.50;96.00
8872;DHT22;4472;52.092;9.820;2023-05-10T03:11:41;14.40;95.90
8872;DHT22;4472;52.092;9.820;2023-05-10T03:14:42;14.50;99.30
8872;DHT22;4472;52.092;9.820;2023-05-10T03:17:39;14.30;96.70
8872;DHT22;4472;52.092;9.820;2023-05-10T03:20:31;14.30;96.70
8872;DHT22;4472;52.092;9.820;2023-05-10T03:23:22;14.30;96.90
8872;DHT22;4472;52.092;9.820;2023-05-10T03:26:17;14.30;96.80
8872;DHT22;4472;52.092;9.820;2023-05-10T03:29:06;14.30;96.80
8872;DHT22;4472;52.092;9.820;2023-05-10T03:31:57;14.30;96.70
8872;DHT22;4472;52.092;9.820;2023-05-10T03:34:44;14.30;96.10
8872;DHT22;4472;52.092;9.820;2023-05-10T03:37:31;14.40;96.20
8872;DHT22;4472;52.092;9.820;2023-05-10T03:40:18;14.40;95.90
8872;DHT22;4472;52.092;9.820;2023-05-10T03:43:05;14.40;96.00
8872;DHT22;4472;52.092;9.820;2023-05-10T03:45:52;14.50;95.80
8872;DHT22;4472;52.092;9.820;2023-05-10T03:48:41;14.50;95.60
8872;DHT22;4472;52.092;9.820;2023-05-10T03:51:28;14.50;95.20
8872;DHT22;4472;52.092;9.820;2023-05-10T03:54:17;14.50;95.30
8872;DHT22;4472;52.092;9.820;2023-05-10T03:57:04;14.60;95.40
8872;DHT22;4472;52.092;9.820;2023-05-10T03:59:51;14.70;95.30
8872;DHT22;4472;52.092;9.820;2023-05-10T04:02:38;14.70;95.40
8872;DHT22;4472;52.092;9.820;2023-05-10T04:05:27;14.70;96.70
8872;DHT22;4472;52.092;9.820;2023-05-10T04:08:14;14.70;96.00
8872;DHT22;4472;52.092;9.820;2023-05-10T04:11:05;14.80;96.00
8872;DHT22;4472;52.092;9.820;2023-05-10T04:13:53;14.70;95.90
8872;DHT22;4472;52.092;9.820;2023-05-10T04:16:40;14.90;97.30
8872;DHT22;4472;52.092;9.820;2023-05-10T04:19:29;14.80;96.80
8872;DHT22;4472;52.092;9.820;2023-05-10T04:22:17;14.70;96.10
8872;DHT22;4472;52.092;9.820;2023-05-10T04:25:06;14.80;97.50
8872;DHT22;4472;52.092;9.820;2023-05-10T04:33:28;14.80;96.40
8872;DHT22;4472;52.092;9.820;2023-05-10T04:36:15;14.80;98.60
8872;DHT22;4472;52.092;9.820;2023-05-10T04:39:04;14.70;97.80
8872;DHT22;4472;52.092;9.820;2023-05-10T04:41:51;14.70;98.80
8872;DHT22;4472;52.092;9.820;2023-05-10T04:44:38;14.70;99.00
8872;DHT22;4472;52.092;9.820;2023-05-10T04:47:26;14.60;99.90
8872;DHT22;4472;52.092;9.820;2023-05-10T04:50:13;14.50;99.90
8872;DHT22;4472;52.092;9.820;2023-05-10T04:53:01;14.40;99.90
8872;DHT22;4472;52.092;9.820;2023-05-10T04:55:49;14.40;99.90
8872;DHT22;4472;52.092;9.820;2023-05-10T04:58:36;14.30;99.90
8872;DHT22;4472;52.092;9.820;2023-05-10T05:18:12;13.90;99.90
8872;DHT22;4472;52.092;9.820;2023-05-10T05:26:35;13.80;99.90
8872;DHT22;4472;52.092;9.820;2023-05-10T05:29:23;13.80;99.90
8872;DHT22;4472;52.092;9.820;2023-05-10T05:32:10;13.80;99.90
8872;DHT22;4472;52.092;9.820;2023-05-10T05:37:45;13.70;99.90
8872;DHT22;4472;52.092;9.820;2023-05-10T05:40:33;13.80;99.90
8872;DHT22;4472;52.092;9.820;2023-05-10T05:43:20;13.80;99.90
8872;DHT22;4472;52.092;9.820;2023-05-10T06:02:56;14.00;99.90
8872;DHT22;4472;52.092;9.820;2023-05-10T06:05:43;14.10;99.90
8872;DHT22;4472;52.092;9.820;2023-05-10T06:08:30;14.10;99.90
8872;DHT22;4472;52.092;9.820;2023-05-10T06:11:17;14.20;99.90
8872;DHT22;4472;52.092;9.820;2023-05-10T06:14:05;14.20;99.90
8872;DHT22;4472;52.092;9.820;2023-05-10T06:16:53;14.30;99.90
8872;DHT22;4472;52.092;9.820;2023-05-10T06:19:41;14.30;99.90
8872;DHT22;4472;52.092;9.820;2023-05-10T06:25:16;14.30;99.90
8872;DHT22;4472;52.092;9.820;2023-05-10T06:28:03;14.30;99.90
8872;DHT22;4472;52.092;9.820;2023-05-10T06:30:50;14.50;99.90
8872;DHT22;4472;52.092;9.820;2023-05-10T06:33:38;14.40;99.90
8872;DHT22;4472;52.092;9.820;2023-05-10T06:36:26;14.60;99.90
8872;DHT22;4472;52.092;9.820;2023-05-10T06:39:13;14.60;99.90
8872;DHT22;4472;52.092;9.820;2023-05-10T06:42:01;14.60;99.90
8872;DHT22;4472;52.092;9.820;2023-05-10T06:44:50;14.70;99.90
8872;DHT22;4472;52.092;9.820;2023-05-10T06:47:37;14.70;99.90
8872;DHT22;4472;52.092;9.820;2023-05-10T06:50:24;14.80;99.90
8872;DHT22;4472;52.092;9.820;2023-05-10T06:53:12;14.80;99.90
8872;DHT22;4472;52.092;9.820;2023-05-10T06:58:48;14.80;99.90
8872;DHT22;4472;52.092;9.820;2023-05-10T07:01:35;14.80;99.90
8872;DHT22;4472;52.092;9.820;2023-05-10T07:04:22;14.80;99.90
8872;DHT22;4472;52.092;9.820;2023-05-10T07:07:09;14.80;99.90
8872;DHT22;4472;52.092;9.820;2023-05-10T07:09:58;14.80;99.90
8872;DHT22;4472;52.092;9.820;2023-05-10T07:12:45;14.80;99.90
8872;DHT22;4472;52.092;9.820;2023-05-10T07:15:32;14.80;99.90
8872;DHT22;4472;52.092;9.820;2023-05-10T07:18:19;14.80;99.90
8872;DHT22;4472;52.092;9.820;2023-05-10T07:21:06;14.80;99.90
8872;DHT22;4472;52.092;9.820;2023-05-10T07:23:54;14.80;99.90
8872;DHT22;4472;52.092;9.820;2023-05-10T07:26:42;14.80;99.90
8872;DHT22;4472;52.092;9.820;2023-05-10T07:29:32;14.80;99.90
8872;DHT22;4472;52.092;9.820;2023-05-10T07:32:20;14.80;99.90
8872;DHT22;4472;52.092;9.820;2023-05-10T07:35:07;14.80;99.90
8872;DHT22;4472;52.092;9.820;2023-05-10T07:37:55;14.80;99.90
8872;DHT22;4472;52.092;9.820;2023-05-10T07:40:42;14.80;99.90
8872;DHT22;4472;52.092;9.820;2023-05-10T07:43:30;14.70;99.90
8872;DHT22;4472;52.092;9.820;2023-05-10T07:46:17;14.60;99.90
8872;DHT22;4472;52.092;9.820;2023-05-10T07:49:05;14.60;99.90
8872;DHT22;4472;52.092;9.820;2023-05-10T07:51:52;14.50;99.90
8872;DHT22;4472;52.092;9.820;2023-05-10T07:54:39;14.50;99.90
8872;DHT22;4472;52.092;9.820;2023-05-10T07:57:26;14.40;99.90
8872;DHT22;4472;52.092;9.820;2023-05-10T08:00:17;14.40;99.90
8872;DHT22;4472;52.092;9.820;2023-05-10T08:03:04;14.50;99.90
8872;DHT22;4472;52.092;9.820;2023-05-10T08:05:51;14.50;99.90
8872;DHT22;4472;52.092;9.820;2023-05-10T08:08:38;14.60;99.90
8872;DHT22;4472;52.092;9.820;2023-05-10T08:11:26;14.70;99.90
8872;DHT22;4472;52.092;9.820;2023-05-10T08:14:13;14.70;99.90
8872;DHT22;4472;52.092;9.820;2023-05-10T08:17:02;14.80;99.90
8872;DHT22;4472;52.092;9.820;2023-05-10T08:19:49;14.90;99.90
8872;DHT22;4472;52.092;9.820;2023-05-10T08:22:36;14.90;99.90
8872;DHT22;4472;52.092;9.820;2023-05-10T08:25:23;14.90;99.90
8872;DHT22;4472;52.092;9.820;2023-05-10T08:28:10;15.00;99.90
8872;DHT22;4472;52.092;9.820;2023-05-10T08:30:57;15.00;99.90
8872;DHT22;4472;52.092;9.820;2023-05-10T08:33:46;15.10;99.90
8872;DHT22;4472;52.092;9.820;2023-05-10T08:36:33;15.10;99.90
8872;DHT22;4472;52.092;9.820;2023-05-10T08:39:20;15.10;99.90
8872;DHT22;4472;52.092;9.820;2023-05-10T08:42:09;15.10;99.90
8872;DHT22;4472;52.092;9.820;2023-05-10T08:44:57;15.10;99.90
8872;DHT22;4472;52.092;9.820;2023-05-10T08:47:46;15.10;99.90
8872;DHT22;4472;52.092;9.820;2023-05-10T08:50:36;15.10;99.90
8872;DHT22;4472;52.092;9.820;2023-05-10T08:53:24;15.10;99.90
8872;DHT22;4472;52.092;9.820;2023-05-10T08:56:13;15.10;99.90
8872;DHT22;4472;52.092;9.820;2023-05-10T08:59:01;14.80;99.90
8872;DHT22;4472;52.092;9.820;2023-05-10T09:01:49;14.90;99.90
8872;DHT22;4472;52.092;9.820;2023-05-10T09:04:37;14.70;99.90
8872;DHT22;4472;52.092;9.820;2023-05-10T09:07:26;15.00;99.90
8872;DHT22;4472;52.092;9.820;2023-05-10T09:10:14;14.90;99.90
8872;DHT22;4472;52.092;9.820;2023-05-10T09:13:02;15.00;99.90
8872;DHT22;4472;52.092;9.820;2023-05-10T09:15:51;15.00;99.90
8872;DHT22;4472;52.092;9.820;2023-05-10T09:18:38;15.10;99.90
8872;DHT22;4472;52.092;9.820;2023-05-10T09:21:25;15.20;99.90
8872;DHT22;4472;52.092;9.820;2023-05-10T09:24:14;15.40;99.90
8872;DHT22;4472;52.092;9.820;2023-05-10T09:27:01;15.40;99.90
8872;DHT22;4472;52.092;9.820;2023-05-10T09:29:49;15.70;99.90
8872;DHT22;4472;52.092;9.820;2023-05-10T09:32:41;16.00;99.90
8872;DHT22;4472;52.092;9.820;2023-05-10T09:35:30;16.10;99.90
8872;DHT22;4472;52.092;9.820;2023-05-10T09:38:17;16.10;99.90
8872;DHT22;4472;52.092;9.820;2023-05-10T09:41:16;16.30;99.90
8872;DHT22;4472;52.092;9.820;2023-05-10T09:44:03;16.30;99.90
8872;DHT22;4472;52.092;9.820;2023-05-10T09:46:50;16.30;99.90
8872;DHT22;4472;52.092;9.820;2023-05-10T09:49:38;16.40;99.90
8872;DHT22;4472;52.092;9.820;2023-05-10T09:52:26;16.50;99.90
8872;DHT22;4472;52.092;9.820;2023-05-10T09:55:13;16.40;99.90
8872;DHT22;4472;52.092;9.820;2023-05-10T09:58:02;16.50;99.90
8872;DHT22;4472;52.092;9.820;2023-05-10T10:00:50;16.70;99.90
8872;DHT22;4472;52.092;9.820;2023-05-10T10:03:41;16.80;99.90
8872;DHT22;4472;52.092;9.820;2023-05-10T10:09:16;16.60;99.90
8872;DHT22;4472;52.092;9.820;2023-05-10T10:12:05;16.60;99.90
8872;DHT22;4472;52.092;9.820;2023-05-10T10:46:12;17.20;99.90
8872;DHT22;4472;52.092;9.820;2023-05-10T10:49:10;17.10;99.90
8872;DHT22;4472;52.092;9.820;2023-05-10T10:52:31;17.10;99.90
8872;DHT22;4472;52.092;9.820;2023-05-10T10:58:08;17.40;99.90
8872;DHT22;4472;52.092;9.820;2023-05-10T11:01:10;17.30;99.90
8872;DHT22;4472;52.092;9.820;2023-05-10T11:24:34;19.00;99.90
8872;DHT22;4472;52.092;9.820;2023-05-10T11:27:22;19.20;99.90
8872;DHT22;4472;52.092;9.820;2023-05-10T11:32:57;19.40;99.90
8872;DHT22;4472;52.092;9.820;2023-05-10T11:35:45;19.40;99.90
8872;DHT22;4472;52.092;9.820;2023-05-10T11:38:33;19.40;99.90
8872;DHT22;4472;52.092;9.820;2023-05-10T11:41:22;19.30;99.90
8872;DHT22;4472;52.092;9.820;2023-05-10T11:44:09;19.50;99.90
8872;DHT22;4472;52.092;9.820;2023-05-10T11:46:58;19.60;99.90
8872;DHT22;4472;52.092;9.820;2023-05-10T11:49:45;19.80;99.90
8872;DHT22;4472;52.092;9.820;2023-05-10T11:52:35;19.90;99.90
8872;DHT22;4472;52.092;9.820;2023-05-10T11:55:23;20.00;99.90
8872;DHT22;4472;52.092;9.820;2023-05-10T11:58:12;19.90;99.90
8872;DHT22;4472;52.092;9.820;2023-05-10T12:03:47;19.40;99.90
8872;DHT22;4472;52.092;9.820;2023-05-10T12:06:39;19.20;99.90
8872;DHT22;4472;52.092;9.820;2023-05-10T12:09:27;19.00;99.90
8872;DHT22;4472;52.092;9.820;2023-05-10T12:12:16;18.90;99.90
8872;DHT22;4472;52.092;9.820;2023-05-10T12:15:06;18.80;99.90
8872;DHT22;4472;52.092;9.820;2023-05-10T12:17:57;18.40;99.90
8872;DHT22;4472;52.092;9.820;2023-05-10T12:20:44;18.00;99.90
8872;DHT22;4472;52.092;9.820;2023-05-10T12:23:31;17.90;99.90
8872;DHT22;4472;52.092;9.820;2023-05-10T12:32:01;19.80;99.90
8872;DHT22;4472;52.092;9.820;2023-05-10T12:34:48;17.80;99.90
8872;DHT22;4472;52.092;9.820;2023-05-10T12:37:36;17.80;99.90
8872;DHT22;4472;52.092;9.820;2023-05-10T12:40:24;17.90;99.90
8872;DHT22;4472;52.092;9.820;2023-05-10T12:43:12;18.00;99.90
8872;DHT22;4472;52.092;9.820;2023-05-10T12:46:03;18.20;99.90
8872;DHT22;4472;52.092;9.820;2023-05-10T12:48:52;18.40;99.90
8872;DHT22;4472;52.092;9.820;2023-05-10T12:51:40;18.40;99.90
8872;DHT22;4472;52.092;9.820;2023-05-10T12:54:27;18.60;99.90
8872;DHT22;4472;52.092;9.820;2023-05-10T12:57:15;18.80;99.90
8872;DHT22;4472;52.092;9.820;2023-05-10T13:00:02;18.90;99.90
8872;DHT22;4472;52.092;9.820;2023-05-10T13:02:51;19.00;99.90
8872;DHT22;4472;52.092;9.820;2023-05-10T13:05:40;19.00;99.90
8872;DHT22;4472;52.092;9.820;2023-05-10T13:11:18;19.40;99.90
8872;DHT22;4472;52.092;9.820;2023-05-10T13:14:07;19.70;99.90
8872;DHT22;4472;52.092;9.820;2023-05-10T13:16:54;19.80;99.90
8872;DHT22;4472;52.092;9.820;2023-05-10T13:19:41;19.70;99.90
8872;DHT22;4472;52.092;9.820;2023-05-10T13:22:30;19.60;99.90
8872;DHT22;4472;52.092;9.820;2023-05-10T13:25:17;19.50;99.90
8872;DHT22;4472;52.092;9.820;2023-05-10T13:28:04;20.40;99.90
8872;DHT22;4472;52.092;9.820;2023-05-10T13:30:51;19.40;99.90
8872;DHT22;4472;52.092;9.820;2023-05-10T13:33:38;19.40;99.90
8872;DHT22;4472;52.092;9.820;2023-05-10T13:36:25;19.30;99.90
8872;DHT22;4472;52.092;9.820;2023-05-10T13:39:14;19.30;99.90
8872;DHT22;4472;52.092;9.820;2023-05-10T13:42:01;19.30;99.90
8872;DHT22;4472;52.092;9.820;2023-05-10T13:44:49;20.00;99.90
8872;DHT22;4472;52.092;9.820;2023-05-10T13:47:36;19.30;99.90
8872;DHT22;4472;52.092;9.820;2023-05-10T13:50:23;19.40;99.90
8872;DHT22;4472;52.092;9.820;2023-05-10T13:53:10;19.40;99.90
8872;DHT22;4472;52.092;9.820;2023-05-10T13:55:59;19.40;99.90
8872;DHT22;4472;52.092;9.820;2023-05-10T13:58:47;19.40;99.90
8872;DHT22;4472;52.092;9.820;2023-05-10T14:01:35;19.30;99.90
8872;DHT22;4472;52.092;9.820;2023-05-10T14:04:22;19.40;99.90
8872;DHT22;4472;52.092;9.820;2023-05-10T14:07:09;19.40;99.90
8872;DHT22;4472;52.092;9.820;2023-05-10T14:09:56;19.30;99.90
8872;DHT22;4472;52.092;9.820;2023-05-10T14:12:44;19.40;99.90
8872;DHT22;4472;52.092;9.820;2023-05-10T14:15:32;19.50;99.90
8872;DHT22;4472;52.092;9.820;2023-05-10T14:18:19;19.50;99.90
8872;DHT22;4472;52.092;9.820;2023-05-10T14:21:06;19.60;99.90
8872;DHT22;4472;52.092;9.820;2023-05-10T14:23:53;19.70;99.90
8872;DHT22;4472;52.092;9.820;2023-05-10T14:26:41;19.80;99.90
8872;DHT22;4472;52.092;9.820;2023-05-10T14:29:29;19.80;99.90
8872;DHT22;4472;52.092;9.820;2023-05-10T14:32:16;19.80;99.90
8872;DHT22;4472;52.092;9.820;2023-05-10T14:35:04;19.90;99.90
8872;DHT22;4472;52.092;9.820;2023-05-10T14:37:53;19.90;99.90
8872;DHT22;4472;52.092;9.820;2023-05-10T14:40:40;19.90;99.90
8872;DHT22;4472;52.092;9.820;2023-05-10T14:43:28;19.90;99.90
8872;DHT22;4472;52.092;9.820;2023-05-10T14:46:18;20.00;99.90
8872;DHT22;4472;52.092;9.820;2023-05-10T14:49:05;20.10;99.90
8872;DHT22;4472;52.092;9.820;2023-05-10T14:51:52;20.20;99.90
8872;DHT22;4472;52.092;9.820;2023-05-10T14:57:27;20.20;99.90
8872;DHT22;4472;52.092;9.820;2023-05-10T15:00:16;20.00;99.90
8872;DHT22;4472;52.092;9.820;2023-05-10T15:08:41;19.60;99.90
8872;DHT22;4472;52.092;9.820;2023-05-10T15:11:29;19.50;99.90
8872;DHT22;4472;52.092;9.820;2023-05-10T15:17:06;19.30;99.90
8872;DHT22;4472;52.092;9.820;2023-05-10T15:19:55;19.30;99.90
8872;DHT22;4472;52.092;9.820;2023-05-10T15:22:42;19.00;99.90
8872;DHT22;4472;52.092;9.820;2023-05-10T15:25:29;18.90;99.90
8872;DHT22;4472;52.092;9.820;2023-05-10T15:28:17;18.80;99.90
8872;DHT22;4472;52.092;9.820;2023-05-10T15:31:04;18.70;99.90
8872;DHT22;4472;52.092;9.820;2023-05-10T15:33:51;18.60;99.90
8872;DHT22;4472;52.092;9.820;2023-05-10T15:36:39;18.50;99.90
8872;DHT22;4472;52.092;9.820;2023-05-10T15:39:27;18.60;99.90
8872;DHT22;4472;52.092;9.820;2023-05-10T15:42:14;18.60;99.90
8872;DHT22;4472;52.092;9.820;2023-05-10T15:45:01;18.30;99.90
8872;DHT22;4472;52.092;9.820;2023-05-10T15:47:48;18.30;99.90
8872;DHT22;4472;52.092;9.820;2023-05-10T15:50:36;18.30;99.90
8872;DHT22;4472;52.092;9.820;2023-05-10T15:53:24;18.30;99.90
8872;DHT22;4472;52.092;9.820;2023-05-10T15:56:11;18.30;99.90
8872;DHT22;4472;52.092;9.820;2023-05-10T15:58:59;18.60;99.90
8872;DHT22;4472;52.092;9.820;2023-05-10T16:01:46;18.50;99.90
8872;DHT22;4472;52.092;9.820;2023-05-10T16:04:33;18.70;99.90
8872;DHT22;4472;52.092;9.820;2023-05-10T16:07:20;18.90;99.90
8872;DHT22;4472;52.092;9.820;2023-05-10T16:10:10;18.90;99.90
8872;DHT22;4472;52.092;9.820;2023-05-10T16:12:57;19.00;99.90
8872;DHT22;4472;52.092;9.820;2023-05-10T16:15:45;19.00;99.90
8872;DHT22;4472;52.092;9.820;2023-05-10T16:18:32;18.90;99.90
8872;DHT22;4472;52.092;9.820;2023-05-10T16:21:19;18.60;99.90
8872;DHT22;4472;52.092;9.820;2023-05-10T16:24:07;18.30;99.90
8872;DHT22;4472;52.092;9.820;2023-05-10T16:26:55;18.20;99.90
8872;DHT22;4472;52.092;9.820;2023-05-10T16:29:42;17.80;99.90
8872;DHT22;4472;52.092;9.820;2023-05-10T16:32:29;17.70;99.90
8872;DHT22;4472;52.092;9.820;2023-05-10T16:35:17;17.50;99.90
8872;DHT22;4472;52.092;9.820;2023-05-10T16:38:04;17.50;99.90
8872;DHT22;4472;52.092;9.820;2023-05-10T16:40:51;17.50;99.90
8872;DHT22;4472;52.092;9.820;2023-05-10T16:43:39;17.40;99.90
8872;DHT22;4472;52.092;9.820;2023-05-10T16:46:27;17.50;99.90
8872;DHT22;4472;52.092;9.820;2023-05-10T16:49:14;17.30;99.90
8872;DHT22;4472;52.092;9.820;2023-05-10T16:52:01;17.20;99.90
8872;DHT22;4472;52.092;9.820;2023-05-10T16:54:48;17.10;99.90
8872;DHT22;4472;52.092;9.820;2023-05-10T16:57:35;17.10;99.90
8872;DHT22;4472;52.092;9.820;2023-05-10T17:00:24;17.10;99.90
8872;DHT22;4472;52.092;9.820;2023-05-10T17:03:11;17.00;99.90
8872;DHT22;4472;52.092;9.820;2023-05-10T17:05:58;17.10;99.90
8872;DHT22;4472;52.092;9.820;2023-05-10T17:08:45;16.70;99.90
8872;DHT22;4472;52.092;9.820;2023-05-10T17:11:33;16.90;99.90
8872;DHT22;4472;52.092;9.820;2023-05-10T17:14:20;16.80;99.90
8872;DHT22;4472;52.092;9.820;2023-05-10T17:17:08;16.70;99.90
8872;DHT22;4472;52.092;9.820;2023-05-10T17:19:56;16.70;99.90
8872;DHT22;4472;52.092;9.820;2023-05-10T17:22:43;16.40;99.90
8872;DHT22;4472;52.092;9.820;2023-05-10T17:25:30;16.20;99.90
8872;DHT22;4472;52.092;9.820;2023-05-10T17:28:17;16.30;99.90
8872;DHT22;4472;52.092;9.820;2023-05-10T17:31:04;15.80;99.90
8872;DHT22;4472;52.092;9.820;2023-05-10T17:33:53;15.60;99.90
8872;DHT22;4472;52.092;9.820;2023-05-10T17:36:40;15.70;99.90
8872;DHT22;4472;52.092;9.820;2023-05-10T17:39:27;15.50;99.90
8872;DHT22;4472;52.092;9.820;2023-05-10T17:42:14;15.60;99.90
8872;DHT22;4472;52.092;9.820;2023-05-10T17:45:03;15.50;99.90
8872;DHT22;4472;52.092;9.820;2023-05-10T17:47:50;15.50;99.90
8872;DHT22;4472;52.092;9.820;2023-05-10T17:50:40;15.70;99.90
8872;DHT22;4472;52.092;9.820;2023-05-10T17:53:27;15.60;99.90
8872;DHT22;4472;52.092;9.820;2023-05-10T17:56:15;15.60;99.90
8872;DHT22;4472;52.092;9.820;2023-05-10T17:59:02;15.50;99.90
8872;DHT22;4472;52.092;9.820;2023-05-10T18:04:38;15.50;99.90
8872;DHT22;4472;52.092;9.820;2023-05-10T18:07:26;15.60;99.90
8872;DHT22;4472;52.092;9.820;2023-05-10T18:10:14;15.50;99.90
8872;DHT22;4472;52.092;9.820;2023-05-10T18:13:02;15.50;99.90
8872;DHT22;4472;52.092;9.820;2023-05-10T18:15:49;15.50;99.90
8872;DHT22;4472;52.092;9.820;2023-05-10T18:18:37;15.40;99.90
8872;DHT22;4472;52.092;9.820;2023-05-10T18:21:24;15.40;99.90
8872;DHT22;4472;52.092;9.820;2023-05-10T18:24:13;15.20;99.90
8872;DHT22;4472;52.092;9.820;2023-05-10T18:27:00;15.20;99.90
8872;DHT22;4472;52.092;9.820;2023-05-10T18:29:47;15.20;99.90
8872;DHT22;4472;52.092;9.820;2023-05-10T18:32:34;15.10;99.90
8872;DHT22;4472;52.092;9.820;2023-05-10T18:35:23;15.10;99.90
8872;DHT22;4472;52.092;9.820;2023-05-10T18:38:10;15.10;99.90
8872;DHT22;4472;52.092;9.820;2023-05-10T18:40:59;15.00;99.90
8872;DHT22;4472;52.092;9.820;2023-05-10T18:43:46;14.60;99.90
8872;DHT22;4472;52.092;9.820;2023-05-10T18:46:33;15.00;99.90
8872;DHT22;4472;52.092;9.820;2023-05-10T18:49:21;15.00;99.90
8872;DHT22;4472;52.092;9.820;2023-05-10T18:52:08;14.90;99.90
8872;DHT22;4472;52.092;9.820;2023-05-10T18:54:55;14.90;99.90
8872;DHT22;4472;52.092;9.820;2023-05-10T18:57:44;14.90;99.90
8872;DHT22;4472;52.092;9.820;2023-05-10T19:00:31;15.30;99.90
8872;DHT22;4472;52.092;9.820;2023-05-10T19:03:18;14.80;99.90
8872;DHT22;4472;52.092;9.820;2023-05-10T19:06:06;14.90;99.90
8872;DHT22;4472;52.092;9.820;2023-05-10T19:08:53;14.70;99.90
8872;DHT22;4472;52.092;9.820;2023-05-10T19:11:40;14.80;99.90
8872;DHT22;4472;52.092;9.820;2023-05-10T19:14:29;14.80;99.90
8872;DHT22;4472;52.092;9.820;2023-05-10T19:17:16;14.80;99.90
8872;DHT22;4472;52.092;9.820;2023-05-10T19:20:04;14.70;99.90
8872;DHT22;4472;52.092;9.820;2023-05-10T19:22:51;14.70;99.90
8872;DHT22;4472;52.092;9.820;2023-05-10T19:25:38;14.70;99.90
8872;DHT22;4472;52.092;9.820;2023-05-10T19:31:15;14.60;99.90
8872;DHT22;4472;52.092;9.820;2023-05-10T19:34:02;14.50;99.90
8872;DHT22;4472;52.092;9.820;2023-05-10T19:36:50;14.50;99.90
8872;DHT22;4472;52.092;9.820;2023-05-10T19:45:12;14.40;99.90
8872;DHT22;4472;52.092;9.820;2023-05-10T19:48:01;14.40;99.90
8872;DHT22;4472;52.092;9.820;2023-05-10T19:50:49;14.40;99.90
8872;DHT22;4472;52.092;9.820;2023-05-10T19:53:36;14.40;99.90
8872;DHT22;4472;52.092;9.820;2023-05-10T19:56:26;14.30;99.90
8872;DHT22;4472;52.092;9.820;2023-05-10T19:59:14;14.30;99.90
8872;DHT22;4472;52.092;9.820;2023-05-10T20:02:01;14.40;99.90
8872;DHT22;4472;52.092;9.820;2023-05-10T20:04:50;14.30;99.90
8872;DHT22;4472;52.092;9.820;2023-05-10T20:07:37;14.30;99.90
8872;DHT22;4472;52.092;9.820;2023-05-10T20:10:24;14.30;99.90
8872;DHT22;4472;52.092;9.820;2023-05-10T20:13:12;14.20;99.90
8872;DHT22;4472;52.092;9.820;2023-05-10T20:18:47;14.20;99.90
8872;DHT22;4472;52.092;9.820;2023-05-10T20:21:35;14.10;99.90
8872;DHT22;4472;52.092;9.820;2023-05-10T20:24:23;14.10;99.90
8872;DHT22;4472;52.092;9.820;2023-05-10T20:27:10;14.10;99.90
8872;DHT22;4472;52.092;9.820;2023-05-10T20:29:57;14.10;99.90
8872;DHT22;4472;52.092;9.820;2023-05-10T20:32:44;14.10;99.90
8872;DHT22;4472;52.092;9.820;2023-05-10T20:35:31;14.00;99.90
8872;DHT22;4472;52.092;9.820;2023-05-10T20:38:20;14.00;99.90
8872;DHT22;4472;52.092;9.820;2023-05-10T20:41:07;15.20;99.90
8872;DHT22;4472;52.092;9.820;2023-05-10T20:43:54;14.10;99.90
8872;DHT22;4472;52.092;9.820;2023-05-10T20:46:42;14.00;99.90
8872;DHT22;4472;52.092;9.820;2023-05-10T20:49:29;14.30;99.90
8872;DHT22;4472;52.092;9.820;2023-05-10T20:52:16;14.20;99.90
8872;DHT22;4472;52.092;9.820;2023-05-10T20:55:06;14.10;99.90
8872;DHT22;4472;52.092;9.820;2023-05-10T20:57:54;14.10;99.90
8872;DHT22;4472;52.092;9.820;2023-05-10T21:00:41;14.10;99.90
8872;DHT22;4472;52.092;9.820;2023-05-10T21:03:28;14.10;99.90